Time;durP1;ratioP1;P1;durP2;ratioP2;P2;SDS_P1;SDS_P2;PMS_P1;PMS_P2;Temp;Humidity;BMP_temperature;BMP_pressure;BME280_temperature;BME280_humidity;BME280_pressure;Samples;Min_cycle;Max_cycle;Signal;HPM_P1;HPM_P2
2023/08/11 00:01:41;;;;;;;8.88;6.80;;;17.70;99.90;;;;;;4909686;29;20373;-62
2023/08/11 00:04:07;;;;;;;10.00;6.68;;;17.80;99.90;;;;;;4927881;29;20051;-63
2023/08/11 00:06:32;;;;;;;12.82;7.40;;;17.70;99.90;;;;;;4927762;29;20050;-59
2023/08/11 00:08:59;;;;;;;8.18;6.47;;;17.70;99.90;;;;;;4925838;29;20253;-63
2023/08/11 00:11:26;;;;;;;12.50;6.28;;;17.70;99.90;;;;;;4927363;29;20478;-64
2023/08/11 00:13:51;;;;;;;12.68;6.90;;;17.70;99.90;;;;;;4927247;29;20051;-65
2023/08/11 00:16:18;;;;;;;8.00;6.90;;;17.70;99.90;;;;;;4926911;29;20070;-63
2023/08/11 00:18:44;;;;;;;10.50;7.25;;;17.70;99.90;;;;;;4927056;29;20571;-65
2023/08/11 00:21:10;;;;;;;11.68;7.05;;;17.70;99.90;;;;;;4927616;29;20122;-62
2023/08/11 00:23:39;;;;;;;9.95;7.18;;;17.70;99.90;;;;;;4927129;29;20052;-57
2023/08/11 00:26:05;;;;;;;11.55;7.60;;;17.70;99.90;;;;;;4925707;29;20047;-63
2023/08/11 00:28:31;;;;;;;9.50;7.65;;;17.60;99.90;;;;;;4926957;29;20047;-65
2023/08/11 00:30:57;;;;;;;8.10;7.25;;;17.60;99.90;;;;;;4928355;29;20561;-65
2023/08/11 00:33:23;;;;;;;9.45;7.70;;;17.80;99.90;;;;;;4930872;29;20044;-60
2023/08/11 00:35:48;;;;;;;8.50;7.00;;;17.70;99.90;;;;;;4931614;29;20048;-63
2023/08/11 00:38:14;;;;;;;12.75;8.10;;;17.60;99.90;;;;;;4930774;29;20138;-59
2023/08/11 00:40:40;;;;;;;12.02;7.18;;;17.60;99.90;;;;;;4930805;29;20046;-58
2023/08/11 00:43:05;;;;;;;10.98;7.75;;;17.60;99.90;;;;;;4930042;29;20079;-59
2023/08/11 00:45:31;;;;;;;10.80;8.05;;;17.60;99.90;;;;;;4930475;29;20083;-63
2023/08/11 00:47:57;;;;;;;8.90;7.80;;;17.60;99.90;;;;;;4930344;29;20043;-63
2023/08/11 00:50:23;;;;;;;10.65;8.68;;;17.70;99.90;;;;;;4930607;29;20122;-62
2023/08/11 00:52:50;;;;;;;9.57;7.90;;;17.70;99.90;;;;;;4930889;29;20051;-58
2023/08/11 00:55:18;;;;;;;13.07;8.52;;;17.60;99.90;;;;;;4930279;29;20138;-56
2023/08/11 00:57:45;;;;;;;9.60;8.60;;;17.60;99.90;;;;;;4929319;29;20062;-58
2023/08/11 01:00:12;;;;;;;14.23;8.68;;;17.60;99.90;;;;;;4925831;29;20611;-55
2023/08/11 01:02:42;;;;;;;9.25;8.15;;;17.60;99.90;;;;;;4928735;29;20062;-63
2023/08/11 01:05:10;;;;;;;13.52;8.10;;;17.50;99.90;;;;;;4928072;29;20055;-62
2023/08/11 01:07:45;;;;;;;10.45;7.97;;;17.40;99.90;;;;;;4929371;29;20055;-58
2023/08/11 01:10:20;;;;;;;12.45;9.13;;;17.40;99.90;;;;;;4926893;29;20522;-63
2023/08/11 01:12:59;;;;;;;13.55;8.95;;;17.40;99.90;;;;;;4928237;29;20079;-59
2023/08/11 01:15:35;;;;;;;13.40;9.05;;;17.40;99.90;;;;;;4910046;29;20488;-56
2023/08/11 01:18:03;;;;;;;15.23;9.32;;;17.30;99.90;;;;;;4909621;29;20127;-58
2023/08/11 01:20:29;;;;;;;14.55;9.10;;;17.30;99.90;;;;;;4909561;29;20137;-61
2023/08/11 01:22:58;;;;;;;11.00;9.32;;;17.20;99.90;;;;;;4910402;29;20052;-62
2023/08/11 01:25:25;;;;;;;10.57;9.50;;;17.20;99.90;;;;;;4909036;29;20094;-58
2023/08/11 01:27:56;;;;;;;13.73;9.43;;;17.10;99.90;;;;;;4909421;29;20056;-57
2023/08/11 01:30:23;;;;;;;13.25;9.80;;;17.10;99.90;;;;;;4909694;29;20512;-61
2023/08/11 01:32:50;;;;;;;14.70;9.70;;;17.00;99.90;;;;;;4909107;29;20050;-50
2023/08/11 01:35:15;;;;;;;12.77;9.73;;;17.00;99.90;;;;;;4908790;29;20506;-62
2023/08/11 01:37:43;;;;;;;10.82;9.00;;;16.90;99.90;;;;;;4910251;29;20048;-61
2023/08/11 01:40:13;;;;;;;12.52;10.10;;;16.80;99.90;;;;;;4909068;29;20203;-58
2023/08/11 01:42:40;;;;;;;11.80;9.60;;;16.80;99.90;;;;;;4907169;29;20138;-61
2023/08/11 01:45:08;;;;;;;12.75;9.43;;;16.90;99.90;;;;;;4926143;29;20071;-62
2023/08/11 01:47:36;;;;;;;12.13;9.93;;;16.70;99.90;;;;;;4928978;29;20059;-55
2023/08/11 01:50:02;;;;;;;10.57;9.48;;;16.60;99.90;;;;;;4927912;29;20044;-54
2023/08/11 01:52:31;;;;;;;11.85;9.55;;;16.60;99.90;;;;;;4928164;29;20051;-65
2023/08/11 01:54:57;;;;;;;12.23;10.48;;;16.60;99.90;;;;;;4927484;29;20095;-63
2023/08/11 01:57:23;;;;;;;13.65;10.27;;;16.50;99.90;;;;;;4925992;29;20435;-62
2023/08/11 01:59:49;;;;;;;11.40;10.23;;;16.50;99.90;;;;;;4927762;29;20076;-64
2023/08/11 02:02:16;;;;;;;12.95;10.32;;;16.40;99.90;;;;;;4927428;29;20056;-63
2023/08/11 02:04:42;;;;;;;16.35;10.90;;;16.40;99.90;;;;;;4925760;29;20763;-57
2023/08/11 02:07:07;;;;;;;14.63;10.65;;;16.40;99.90;;;;;;4926895;29;20048;-63
2023/08/11 02:09:33;;;;;;;12.90;11.23;;;16.30;99.90;;;;;;4927724;29;20953;-60
2023/08/11 02:11:59;;;;;;;12.55;10.52;;;16.30;99.90;;;;;;4927178;29;20079;-59
2023/08/11 02:14:24;;;;;;;13.85;11.48;;;16.20;99.90;;;;;;4926476;29;20051;-62
2023/08/11 02:16:50;;;;;;;14.88;11.55;;;16.20;99.90;;;;;;4928260;29;20056;-63
2023/08/11 02:19:15;;;;;;;15.60;11.82;;;16.20;99.90;;;;;;4928258;29;21255;-56
2023/08/11 02:21:42;;;;;;;12.95;11.65;;;16.30;99.90;;;;;;4927568;29;20542;-60
2023/08/11 02:24:07;;;;;;;13.25;11.70;;;16.20;99.90;;;;;;4927638;29;20073;-58
2023/08/11 02:26:33;;;;;;;14.98;12.35;;;16.20;99.90;;;;;;4928535;29;20040;-58
2023/08/11 02:28:59;;;;;;;16.27;12.05;;;16.10;99.90;;;;;;4926282;29;20056;-59
2023/08/11 02:31:27;;;;;;;16.10;12.18;;;16.10;99.90;;;;;;4927477;29;20150;-62
2023/08/11 02:33:53;;;;;;;14.43;12.60;;;16.00;99.90;;;;;;4926428;29;20056;-57
2023/08/11 02:36:20;;;;;;;17.45;13.32;;;16.00;99.90;;;;;;4927178;29;20054;-60
2023/08/11 02:38:45;;;;;;;15.43;13.82;;;15.90;99.90;;;;;;4926871;29;20122;-60
2023/08/11 02:41:11;;;;;;;18.38;14.10;;;15.90;99.90;;;;;;4926803;29;20047;-63
2023/08/11 02:43:37;;;;;;;15.57;13.98;;;15.90;99.90;;;;;;4921686;29;20048;-55
2023/08/11 02:46:07;;;;;;;17.65;14.35;;;15.90;99.90;;;;;;4927206;29;20395;-54
2023/08/11 02:48:36;;;;;;;18.40;14.88;;;15.90;99.90;;;;;;4927128;29;20056;-57
2023/08/11 02:51:04;;;;;;;18.40;15.55;;;15.90;99.90;;;;;;4927136;29;20126;-55
2023/08/11 02:53:30;;;;;;;18.73;15.80;;;15.90;99.90;;;;;;4927341;29;20056;-61
2023/08/11 02:55:56;;;;;;;20.20;15.48;;;15.90;99.90;;;;;;4926538;29;20111;-58
2023/08/11 02:58:22;;;;;;;23.35;16.20;;;15.90;99.90;;;;;;4926061;29;20861;-58
2023/08/11 03:00:48;;;;;;;19.20;16.77;;;15.90;99.90;;;;;;4926886;29;20487;-53
2023/08/11 03:03:14;;;;;;;17.35;15.40;;;15.90;99.90;;;;;;4925387;29;20142;-62
2023/08/11 03:05:43;;;;;;;18.25;16.20;;;15.80;99.90;;;;;;4927303;29;20203;-58
2023/08/11 03:08:09;;;;;;;18.58;15.20;;;15.80;99.90;;;;;;4927078;29;20607;-60
2023/08/11 03:10:34;;;;;;;19.80;16.35;;;15.80;99.90;;;;;;4926614;29;20059;-57
2023/08/11 03:13:00;;;;;;;17.92;15.63;;;15.80;99.90;;;;;;4925346;29;20048;-57
2023/08/11 03:15:26;;;;;;;16.58;14.75;;;15.80;99.90;;;;;;4907976;29;20056;-60
2023/08/11 03:17:52;;;;;;;17.23;15.48;;;15.80;99.90;;;;;;4908415;29;20089;-54
2023/08/11 03:20:18;;;;;;;17.65;15.20;;;15.80;99.90;;;;;;4907378;29;20063;-65
2023/08/11 03:22:44;;;;;;;17.80;15.15;;;15.80;99.90;;;;;;4908115;29;20052;-64
2023/08/11 03:25:11;;;;;;;16.25;14.38;;;15.80;99.90;;;;;;4907555;29;20427;-64
2023/08/11 03:27:39;;;;;;;17.40;15.60;;;15.80;99.90;;;;;;4906963;29;20079;-62
2023/08/11 03:30:06;;;;;;;17.50;15.65;;;15.70;99.90;;;;;;4907185;29;20083;-62
2023/08/11 03:32:32;;;;;;;17.15;15.32;;;15.70;99.90;;;;;;4907810;29;20127;-64
2023/08/11 03:34:58;;;;;;;19.17;14.95;;;15.70;99.90;;;;;;4907703;29;20100;-60
2023/08/11 03:37:23;;;;;;;19.38;16.40;;;15.70;99.90;;;;;;4907217;29;20047;-61
2023/08/11 03:39:49;;;;;;;19.38;15.40;;;15.70;99.90;;;;;;4907734;29;20052;-60
2023/08/11 03:42:14;;;;;;;16.88;15.00;;;15.70;99.90;;;;;;4906131;29;20052;-63
2023/08/11 03:44:40;;;;;;;17.00;15.20;;;15.60;99.90;;;;;;4907630;29;20183;-63
2023/08/11 03:47:06;;;;;;;18.20;16.35;;;15.60;99.90;;;;;;4907941;29;20581;-61
2023/08/11 03:49:32;;;;;;;18.45;16.55;;;15.60;99.90;;;;;;4926648;29;20047;-62
2023/08/11 03:51:57;;;;;;;16.95;15.15;;;15.60;99.90;;;;;;4926364;29;20471;-61
2023/08/11 03:54:23;;;;;;;17.23;15.40;;;15.50;99.90;;;;;;4925953;29;20399;-58
2023/08/11 03:56:48;;;;;;;19.80;15.10;;;15.60;99.90;;;;;;4925537;29;20092;-58
2023/08/11 03:59:14;;;;;;;17.40;15.60;;;15.50;99.90;;;;;;4926464;29;20043;-62
2023/08/11 04:01:40;;;;;;;17.70;15.90;;;15.50;99.90;;;;;;4927212;29;20423;-58
2023/08/11 04:04:06;;;;;;;17.02;15.25;;;15.40;99.90;;;;;;4928060;29;20111;-59
2023/08/11 04:06:32;;;;;;;17.95;16.00;;;15.40;99.90;;;;;;4930152;29;20637;-63
2023/08/11 04:09:01;;;;;;;18.27;15.20;;;15.40;99.90;;;;;;4931688;29;20039;-64
2023/08/11 04:11:28;;;;;;;19.00;14.73;;;15.40;99.90;;;;;;4930830;29;20051;-65
2023/08/11 04:13:53;;;;;;;17.38;14.95;;;15.40;99.90;;;;;;4930856;29;20051;-64
2023/08/11 04:16:20;;;;;;;16.88;14.95;;;15.30;99.90;;;;;;4931318;29;20573;-61
2023/08/11 04:18:45;;;;;;;19.60;16.30;;;15.30;99.90;;;;;;4930584;29;20047;-64
2023/08/11 04:21:11;;;;;;;17.75;15.32;;;15.30;99.90;;;;;;4931227;29;20042;-61
2023/08/11 04:23:37;;;;;;;17.10;15.07;;;15.30;99.90;;;;;;4930705;29;20765;-65
2023/08/11 04:26:05;;;;;;;16.77;14.68;;;15.30;99.90;;;;;;4931123;29;20036;-62
2023/08/11 04:28:31;;;;;;;17.35;15.35;;;15.30;99.90;;;;;;4930461;29;20095;-63
2023/08/11 04:30:57;;;;;;;17.27;14.57;;;15.20;99.90;;;;;;4931355;29;20040;-66
2023/08/11 04:33:25;;;;;;;16.00;14.23;;;15.20;99.90;;;;;;4930425;29;20514;-60
2023/08/11 04:35:51;;;;;;;15.88;14.15;;;15.40;99.90;;;;;;4930149;29;20039;-66
2023/08/11 04:38:17;;;;;;;17.00;14.65;;;15.30;99.90;;;;;;4930660;29;20548;-60
2023/08/11 04:40:43;;;;;;;19.10;14.25;;;15.30;99.90;;;;;;4930107;29;20047;-63
2023/08/11 04:43:08;;;;;;;17.40;14.27;;;15.30;99.90;;;;;;4929773;29;20095;-66
2023/08/11 04:45:34;;;;;;;15.70;13.95;;;15.30;99.90;;;;;;4930958;29;20079;-59
2023/08/11 04:48:00;;;;;;;16.92;13.95;;;15.40;99.90;;;;;;4930746;29;20776;-63
2023/08/11 04:50:26;;;;;;;15.68;13.98;;;15.40;99.90;;;;;;4930376;29;20103;-53
2023/08/11 04:52:52;;;;;;;19.83;13.95;;;15.40;99.90;;;;;;4928917;29;20665;-60
2023/08/11 04:55:17;;;;;;;15.00;13.43;;;15.40;99.90;;;;;;4929490;29;20127;-59
2023/08/11 04:57:43;;;;;;;15.48;13.85;;;15.40;99.90;;;;;;4929053;29;20055;-55
2023/08/11 05:00:16;;;;;;;15.90;13.52;;;15.60;99.90;;;;;;4929596;29;20043;-55
2023/08/11 05:02:44;;;;;;;17.17;12.77;;;15.50;99.90;;;;;;4930345;29;20056;-60
2023/08/11 05:05:11;;;;;;;17.52;12.35;;;15.80;99.90;;;;;;4929912;29;20044;-62
2023/08/11 05:07:37;;;;;;;14.75;12.20;;;16.10;99.90;;;;;;4929519;29;20040;-62
2023/08/11 05:10:04;;;;;;;14.55;11.10;;;16.50;99.90;;;;;;4931253;29;20051;-55
2023/08/11 05:12:30;;;;;;;13.20;10.93;;;16.80;99.90;;;;;;4930816;29;20376;-62
2023/08/11 05:14:56;;;;;;;14.52;10.70;;;17.00;99.90;;;;;;4930517;29;20479;-61
2023/08/11 05:17:21;;;;;;;11.50;10.25;;;17.20;99.90;;;;;;4930377;29;20127;-58
2023/08/11 05:19:47;;;;;;;13.30;9.65;;;17.40;99.90;;;;;;4930525;29;20055;-64
2023/08/11 05:22:12;;;;;;;15.70;9.90;;;17.40;99.90;;;;;;4929810;29;20055;-57
2023/08/11 05:24:38;;;;;;;11.38;9.25;;;17.60;99.90;;;;;;4929683;29;20070;-60
2023/08/11 05:27:05;;;;;;;12.55;9.70;;;17.60;99.90;;;;;;4930026;29;20630;-54
2023/08/11 05:29:31;;;;;;;13.57;8.82;;;17.70;99.90;;;;;;4931059;29;20086;-60
2023/08/11 05:31:56;;;;;;;12.45;9.13;;;17.80;99.90;;;;;;4929652;29;20475;-58
2023/08/11 05:34:22;;;;;;;13.43;9.77;;;17.90;99.90;;;;;;4929209;29;20040;-53
2023/08/11 05:36:48;;;;;;;12.80;9.20;;;17.90;99.90;;;;;;4929648;29;20047;-63
2023/08/11 05:39:14;;;;;;;13.43;8.52;;;18.00;99.90;;;;;;4929839;29;20043;-63
2023/08/11 05:41:40;;;;;;;10.10;8.88;;;18.20;99.90;;;;;;4927664;29;20044;-62
2023/08/11 05:44:06;;;;;;;11.70;8.07;;;18.30;99.90;;;;;;4929899;29;20044;-64
2023/08/11 05:46:32;;;;;;;10.23;7.95;;;18.40;99.90;;;;;;4930060;29;20054;-64
2023/08/11 05:48:57;;;;;;;12.40;7.60;;;18.60;99.90;;;;;;4927769;29;20423;-65
2023/08/11 05:51:23;;;;;;;11.20;7.57;;;18.70;99.90;;;;;;4929172;29;20700;-54
2023/08/11 05:53:49;;;;;;;12.13;7.75;;;19.00;99.90;;;;;;4929486;29;20071;-64
2023/08/11 05:56:15;;;;;;;9.98;7.30;;;19.10;99.90;;;;;;4928380;29;20081;-56
2023/08/11 05:58:40;;;;;;;9.23;7.30;;;19.20;99.90;;;;;;4926792;29;20048;-62
2023/08/11 06:01:06;;;;;;;12.18;7.22;;;19.10;99.90;;;;;;4929791;29;20044;-59
2023/08/11 06:03:32;;;;;;;10.65;6.88;;;19.10;99.90;;;;;;4928997;29;20439;-64
2023/08/11 06:06:04;;;;;;;13.00;6.43;;;19.30;99.90;;;;;;4928852;29;20066;-55
2023/08/11 06:08:30;;;;;;;8.55;6.47;;;19.40;99.90;;;;;;4928803;29;20508;-58
2023/08/11 06:10:56;;;;;;;7.65;6.20;;;19.60;99.90;;;;;;4929168;29;20110;-57
2023/08/11 06:13:25;;;;;;;13.52;6.80;;;19.70;99.90;;;;;;4928431;29;20631;-64
2023/08/11 06:15:50;;;;;;;10.55;6.65;;;19.80;99.90;;;;;;4928567;29;20044;-60
2023/08/11 06:18:17;;;;;;;12.20;6.80;;;20.00;99.90;;;;;;4927668;29;20058;-61
2023/08/11 06:20:43;;;;;;;12.52;5.80;;;20.00;99.90;;;;;;4928128;29;20044;-58
2023/08/11 06:23:09;;;;;;;10.68;6.13;;;20.30;99.90;;;;;;4929116;29;20403;-64
2023/08/11 06:25:35;;;;;;;10.55;6.40;;;20.30;99.90;;;;;;4929285;29;20044;-60
2023/08/11 06:28:01;;;;;;;12.20;6.28;;;20.30;99.90;;;;;;4927138;29;20056;-57
2023/08/11 06:30:28;;;;;;;8.25;5.53;;;20.50;99.90;;;;;;4927566;29;20055;-61
2023/08/11 06:32:54;;;;;;;8.35;6.00;;;20.70;99.90;;;;;;4928912;29;20418;-61
2023/08/11 06:35:20;;;;;;;7.35;5.53;;;20.60;99.90;;;;;;4928810;29;20629;-64
2023/08/11 06:37:46;;;;;;;7.95;5.00;;;20.60;99.90;;;;;;4928103;29;20052;-54
2023/08/11 06:40:13;;;;;;;9.15;5.20;;;20.60;99.90;;;;;;4928335;29;20078;-64
2023/08/11 06:42:39;;;;;;;6.82;4.78;;;20.60;99.90;;;;;;4927709;29;20044;-64
2023/08/11 06:45:05;;;;;;;8.15;4.97;;;20.80;99.90;;;;;;4928764;29;20039;-59
2023/08/11 06:47:31;;;;;;;6.70;4.80;;;20.90;99.90;;;;;;4929072;29;20467;-63
2023/08/11 06:49:57;;;;;;;9.70;5.05;;;20.90;99.90;;;;;;4928691;29;20106;-66
2023/08/11 06:52:23;;;;;;;7.72;4.40;;;20.90;99.90;;;;;;4928228;29;20055;-64
2023/08/11 06:54:49;;;;;;;7.72;4.25;;;21.10;99.90;;;;;;4927709;29;20518;-59
2023/08/11 06:57:18;;;;;;;7.25;4.40;;;21.00;99.90;;;;;;4927078;29;20134;-64
2023/08/11 06:59:44;;;;;;;6.28;4.22;;;21.10;99.90;;;;;;4928393;29;20051;-66
2023/08/11 07:02:09;;;;;;;7.55;4.75;;;21.10;99.90;;;;;;4926085;29;20433;-63
2023/08/11 07:04:35;;;;;;;7.47;4.13;;;21.00;99.90;;;;;;4927024;29;20132;-60
2023/08/11 07:07:01;;;;;;;6.78;3.97;;;21.00;99.90;;;;;;4927387;29;20048;-66
2023/08/11 07:09:26;;;;;;;6.18;4.05;;;21.20;99.90;;;;;;4927790;29;20052;-58
2023/08/11 07:11:52;;;;;;;6.75;3.83;;;21.30;99.90;;;;;;4926786;29;20103;-64
2023/08/11 07:14:18;;;;;;;6.22;3.60;;;21.50;99.90;;;;;;4927300;29;20055;-64
2023/08/11 07:16:43;;;;;;;7.18;3.90;;;21.70;99.90;;;;;;4927984;29;20055;-65
2023/08/11 07:19:09;;;;;;;6.70;3.47;;;21.70;99.90;;;;;;4927531;29;20062;-58
2023/08/11 07:21:34;;;;;;;5.72;3.53;;;21.80;99.90;;;;;;4927622;29;20182;-64
2023/08/11 07:24:00;;;;;;;5.80;3.60;;;22.10;99.90;;;;;;4927136;29;20047;-62
2023/08/11 07:26:26;;;;;;;6.72;3.50;;;22.20;99.90;;;;;;4926698;29;20494;-64
2023/08/11 07:28:51;;;;;;;6.13;3.42;;;22.10;99.90;;;;;;4927287;29;20039;-63
2023/08/11 07:31:17;;;;;;;5.07;3.22;;;22.10;99.90;;;;;;4927855;29;20063;-62
2023/08/11 07:33:43;;;;;;;5.18;3.40;;;22.30;99.90;;;;;;4927534;29;20043;-59
2023/08/11 07:36:09;;;;;;;9.27;3.17;;;22.30;99.90;;;;;;4927901;29;20035;-57
2023/08/11 07:38:35;;;;;;;6.35;3.65;;;22.40;99.90;;;;;;4928156;29;20856;-65
2023/08/11 07:41:00;;;;;;;7.32;3.35;;;22.50;99.90;;;;;;4927363;29;20090;-57
2023/08/11 07:43:26;;;;;;;9.10;3.30;;;22.70;99.90;;;;;;4926147;29;20039;-59
2023/08/11 07:45:52;;;;;;;5.85;3.25;;;22.80;99.90;;;;;;4927380;29;20881;-63
2023/08/11 07:48:18;;;;;;;4.57;3.50;;;22.80;99.90;;;;;;4926118;29;20091;-59
2023/08/11 07:50:44;;;;;;;4.80;3.20;;;22.80;99.90;;;;;;4927432;29;20369;-64
2023/08/11 07:53:10;;;;;;;4.60;3.30;;;22.80;99.90;;;;;;4927311;29;20043;-64
2023/08/11 07:55:36;;;;;;;6.50;3.20;;;22.70;99.90;;;;;;4927161;29;20489;-57
2023/08/11 07:58:03;;;;;;;5.40;3.33;;;22.80;99.90;;;;;;4926536;29;20106;-58
2023/08/11 08:00:29;;;;;;;11.07;3.42;;;23.00;99.90;;;;;;4927448;29;20143;-66
2023/08/11 08:02:55;;;;;;;5.57;3.17;;;23.30;99.90;;;;;;4926756;29;20060;-54
2023/08/11 08:05:21;;;;;;;5.60;3.15;;;23.50;99.90;;;;;;4927602;29;20056;-57
2023/08/11 08:07:47;;;;;;;7.85;3.50;;;23.40;99.60;;;;;;4927759;29;20584;-59
2023/08/11 08:10:14;;;;;;;6.25;3.65;;;23.10;99.50;;;;;;4927487;29;20044;-57
2023/08/11 08:12:43;;;;;;;5.32;3.33;;;23.00;99.70;;;;;;4927807;29;20059;-62
2023/08/11 08:15:10;;;;;;;7.43;3.10;;;23.00;99.90;;;;;;4928174;29;20400;-56
2023/08/11 08:17:37;;;;;;;7.38;3.40;;;23.00;99.90;;;;;;4926164;29;20098;-62
2023/08/11 08:20:13;;;;;;;4.45;3.28;;;23.00;99.80;;;;;;4925261;29;20483;-62
2023/08/11 08:22:40;;;;;;;6.38;3.20;;;23.00;99.90;;;;;;4919485;29;20048;-61
2023/08/11 08:25:07;;;;;;;5.07;3.00;;;23.10;99.90;;;;;;4927994;29;20056;-56
2023/08/11 08:27:40;;;;;;;6.22;3.20;;;23.30;99.90;;;;;;4926876;29;20074;-65
2023/08/11 08:30:07;;;;;;;7.65;3.90;;;23.30;99.80;;;;;;4927128;29;20082;-64
2023/08/11 08:32:33;;;;;;;6.43;3.47;;;23.30;99.10;;;;;;4927652;29;20569;-61
2023/08/11 08:34:59;;;;;;;5.18;3.10;;;23.30;99.70;;;;;;4927074;29;20487;-62
2023/08/11 08:37:28;;;;;;;5.22;3.38;;;23.20;99.70;;;;;;4926978;29;20067;-58
2023/08/11 08:39:54;;;;;;;5.68;3.35;;;23.30;99.80;;;;;;4926445;29;20047;-62
2023/08/11 08:42:21;;;;;;;5.75;3.47;;;23.40;99.80;;;;;;4926522;29;20187;-61
2023/08/11 08:44:48;;;;;;;5.43;3.78;;;23.40;99.80;;;;;;4926784;29;20186;-62
2023/08/11 08:47:16;;;;;;;4.82;3.25;;;23.60;99.40;;;;;;4927204;29;20096;-54
2023/08/11 08:49:43;;;;;;;4.72;3.25;;;23.60;99.20;;;;;;4927652;29;20048;-62
2023/08/11 08:52:09;;;;;;;8.07;3.70;;;23.70;99.80;;;;;;4928888;29;20036;-62
2023/08/11 08:54:35;;;;;;;6.85;3.50;;;23.80;99.30;;;;;;4930012;29;20052;-58
2023/08/11 08:57:01;;;;;;;4.63;3.67;;;23.80;98.90;;;;;;4929160;29;20095;-58
2023/08/11 08:59:28;;;;;;;8.20;3.67;;;23.90;98.90;;;;;;4929662;29;20059;-63
2023/08/11 09:01:54;;;;;;;10.02;4.00;;;24.00;98.80;;;;;;4931037;29;20406;-54
2023/08/11 09:04:22;;;;;;;7.05;3.65;;;24.00;98.40;;;;;;4929250;29;20052;-62
2023/08/11 09:06:48;;;;;;;6.70;4.07;;;24.10;98.10;;;;;;4930306;29;20051;-56
2023/08/11 09:09:15;;;;;;;8.27;3.80;;;24.10;97.90;;;;;;4930455;29;20050;-65
2023/08/11 09:11:41;;;;;;;6.93;4.25;;;24.10;97.90;;;;;;4929545;29;20051;-64
2023/08/11 09:14:08;;;;;;;6.70;4.00;;;24.10;97.60;;;;;;4930676;29;20042;-60
2023/08/11 09:16:38;;;;;;;6.47;3.85;;;24.10;97.90;;;;;;4930615;29;20051;-58
2023/08/11 09:19:07;;;;;;;5.68;3.55;;;24.20;98.00;;;;;;4930039;29;20052;-59
2023/08/11 09:21:33;;;;;;;7.30;3.75;;;24.20;98.40;;;;;;4930459;29;20042;-64
2023/08/11 09:23:59;;;;;;;5.55;3.33;;;24.40;98.30;;;;;;4930432;29;20051;-65
2023/08/11 09:26:26;;;;;;;7.93;4.22;;;24.70;98.40;;;;;;4928871;29;20051;-66
2023/08/11 09:28:52;;;;;;;5.60;3.70;;;24.80;96.90;;;;;;4929708;29;20040;-60
2023/08/11 09:31:22;;;;;;;5.88;3.63;;;24.80;96.90;;;;;;4930350;29;20058;-63
2023/08/11 09:33:48;;;;;;;8.27;4.13;;;24.80;97.20;;;;;;4929942;29;20127;-58
2023/08/11 09:36:14;;;;;;;6.15;3.92;;;24.80;97.50;;;;;;4930776;29;20094;-63
2023/08/11 09:38:44;;;;;;;8.77;4.25;;;25.00;97.20;;;;;;4928825;29;20048;-60
2023/08/11 09:41:11;;;;;;;5.90;4.15;;;25.00;97.00;;;;;;4928977;29;20058;-58
2023/08/11 09:43:37;;;;;;;7.00;3.92;;;25.00;96.70;;;;;;4929077;29;20119;-61
2023/08/11 09:46:02;;;;;;;7.22;4.38;;;25.10;96.70;;;;;;4929680;29;20538;-61
2023/08/11 09:48:28;;;;;;;8.50;3.83;;;25.20;96.80;;;;;;4928132;29;20047;-61
2023/08/11 09:50:56;;;;;;;7.53;4.13;;;25.30;97.10;;;;;;4929020;29;20043;-61
2023/08/11 09:53:23;;;;;;;8.30;4.03;;;25.50;96.40;;;;;;4929381;29;20047;-58
2023/08/11 09:55:50;;;;;;;6.90;3.70;;;25.60;95.90;;;;;;4928741;29;20432;-63
2023/08/11 09:58:17;;;;;;;8.35;4.00;;;25.50;96.50;;;;;;4927822;29;20052;-60
2023/08/11 10:00:46;;;;;;;6.57;3.75;;;25.70;96.20;;;;;;4929814;29;20046;-59
2023/08/11 10:03:17;;;;;;;6.68;4.22;;;25.70;95.20;;;;;;4926691;29;20059;-61
2023/08/11 10:05:45;;;;;;;5.68;3.70;;;25.70;95.30;;;;;;4929468;29;20123;-57
2023/08/11 10:08:19;;;;;;;5.55;3.40;;;25.60;95.80;;;;;;4929303;29;20051;-56
2023/08/11 10:10:44;;;;;;;6.57;3.58;;;25.70;95.50;;;;;;4929997;29;20047;-56
2023/08/11 10:13:21;;;;;;;7.80;4.00;;;25.80;95.10;;;;;;4928919;29;20047;-61
2023/08/11 10:15:48;;;;;;;6.57;4.03;;;25.90;94.90;;;;;;4929517;29;20055;-61
2023/08/11 10:18:16;;;;;;;8.57;4.00;;;26.00;94.80;;;;;;4929640;29;20051;-60
2023/08/11 10:20:42;;;;;;;6.43;3.78;;;26.00;94.90;;;;;;4929022;29;20040;-61
2023/08/11 10:23:08;;;;;;;5.95;3.90;;;26.00;95.10;;;;;;4928916;29;20718;-62
2023/08/11 10:25:35;;;;;;;5.30;3.85;;;26.10;95.50;;;;;;4929183;29;20494;-63
2023/08/11 10:28:02;;;;;;;6.55;3.88;;;26.30;94.80;;;;;;4927577;29;20055;-59
2023/08/11 10:30:28;;;;;;;7.80;3.80;;;26.40;94.60;;;;;;4929415;29;20423;-61
2023/08/11 10:33:06;;;;;;;7.13;3.55;;;26.50;94.30;;;;;;4928611;29;20138;-60
2023/08/11 10:35:47;;;;;;;7.05;4.10;;;26.50;94.80;;;;;;4928201;29;20125;-62
2023/08/11 10:38:26;;;;;;;5.47;3.55;;;26.60;95.10;;;;;;4929312;29;20074;-59
2023/08/11 10:41:10;;;;;;;5.45;3.42;;;26.40;94.90;;;;;;4927755;29;20107;-58
2023/08/11 10:43:37;;;;;;;4.63;3.35;;;26.50;94.80;;;;;;4929322;29;20087;-65
2023/08/11 10:46:26;;;;;;;7.13;3.63;;;26.60;94.70;;;;;;4928348;29;20730;-61
2023/08/11 10:49:04;;;;;;;6.90;3.50;;;26.80;94.30;;;;;;4928711;29;20051;-61
2023/08/11 10:51:35;;;;;;;8.15;3.58;;;26.70;94.80;;;;;;4928188;29;20043;-63
2023/08/11 10:54:11;;;;;;;7.18;3.38;;;26.70;94.80;;;;;;4928035;29;20039;-61
2023/08/11 10:56:44;;;;;;;5.63;3.60;;;26.70;94.90;;;;;;4926543;29;20138;-61
2023/08/11 10:59:24;;;;;;;8.07;3.33;;;26.90;94.00;;;;;;4928671;29;20063;-59
2023/08/11 11:01:54;;;;;;;11.95;3.72;;;27.00;93.90;;;;;;4927245;29;20079;-64
2023/08/11 11:04:26;;;;;;;4.88;3.10;;;27.00;93.90;;;;;;4928589;29;20058;-65
2023/08/11 11:06:52;;;;;;;5.32;3.20;;;27.00;93.90;;;;;;4927508;29;20055;-59
2023/08/11 11:09:18;;;;;;;4.63;3.47;;;27.00;94.20;;;;;;4926875;29;20051;-54
2023/08/11 11:11:44;;;;;;;4.82;2.92;;;27.20;94.20;;;;;;4927208;29;20127;-64
2023/08/11 11:14:12;;;;;;;6.25;2.78;;;27.30;93.00;;;;;;4928137;29;20088;-61
2023/08/11 11:16:38;;;;;;;5.07;2.90;;;27.30;93.60;;;;;;4928143;29;20066;-61
2023/08/11 11:19:05;;;;;;;4.35;3.28;;;27.40;92.90;;;;;;4927867;29;20047;-63
2023/08/11 11:21:32;;;;;;;5.15;2.72;;;27.30;92.70;;;;;;4927871;29;20051;-61
2023/08/11 11:23:58;;;;;;;3.55;2.65;;;27.30;93.00;;;;;;4927826;29;20097;-56
2023/08/11 11:26:29;;;;;;;5.22;2.53;;;27.20;93.20;;;;;;4926673;29;20047;-63
2023/08/11 11:28:57;;;;;;;8.18;2.95;;;27.20;93.50;;;;;;4927746;29;20043;-63
2023/08/11 11:31:24;;;;;;;5.25;2.70;;;27.20;93.80;;;;;;4927594;29;20062;-56
2023/08/11 11:33:50;;;;;;;7.00;2.70;;;27.40;93.50;;;;;;4927734;29;20441;-62
2023/08/11 11:36:20;;;;;;;6.57;2.70;;;27.70;92.80;;;;;;4927717;29;20051;-59
2023/08/11 11:38:46;;;;;;;7.95;2.90;;;27.70;92.80;;;;;;4927602;29;20051;-59
2023/08/11 11:41:13;;;;;;;5.32;2.85;;;27.70;92.50;;;;;;4925702;29;20160;-56
2023/08/11 11:43:39;;;;;;;5.32;2.67;;;27.60;93.00;;;;;;4927935;29;20114;-55
2023/08/11 11:46:14;;;;;;;3.70;2.30;;;27.80;92.60;;;;;;4927503;29;20874;-62
2023/08/11 11:48:44;;;;;;;6.43;2.60;;;27.80;92.60;;;;;;4927558;29;20044;-59
2023/08/11 11:51:11;;;;;;;6.60;2.63;;;27.90;92.80;;;;;;4922436;29;20142;-63
2023/08/11 11:53:38;;;;;;;6.35;2.63;;;27.90;92.70;;;;;;4927140;29;20059;-63
2023/08/11 11:56:04;;;;;;;8.38;2.60;;;27.90;92.80;;;;;;4921612;29;20119;-62
2023/08/11 11:58:32;;;;;;;5.78;2.70;;;27.90;92.10;;;;;;4927067;29;20191;-63
2023/08/11 12:01:18;;;;;;;5.80;2.90;;;27.80;92.30;;;;;;4927269;29;20062;-62
2023/08/11 12:03:49;;;;;;;4.53;2.60;;;27.90;92.80;;;;;;4924312;29;20444;-61
2023/08/11 12:06:18;;;;;;;6.22;2.88;;;27.90;92.30;;;;;;4926257;29;20483;-60
2023/08/11 12:08:44;;;;;;;5.68;2.95;;;27.90;92.20;;;;;;4926340;29;20063;-64
2023/08/11 12:11:12;;;;;;;5.10;2.53;;;27.80;92.70;;;;;;4925739;29;20043;-60
2023/08/11 12:13:42;;;;;;;4.47;2.80;;;27.90;92.10;;;;;;4926421;29;20087;-60
2023/08/11 12:16:09;;;;;;;7.40;2.70;;;28.00;92.20;;;;;;4927500;29;20110;-59
2023/08/11 12:18:37;;;;;;;4.35;2.50;;;28.00;91.90;;;;;;4926557;29;20051;-63
2023/08/11 12:21:03;;;;;;;7.03;2.55;;;28.10;92.20;;;;;;4927439;29;20132;-54
2023/08/11 12:23:29;;;;;;;6.30;2.67;;;28.30;91.20;;;;;;4926160;29;20047;-64
2023/08/11 12:25:55;;;;;;;4.95;2.70;;;28.30;91.40;;;;;;4925694;29;20055;-57
2023/08/11 12:28:21;;;;;;;4.25;2.45;;;28.20;91.10;;;;;;4931593;29;20036;-62
2023/08/11 12:30:47;;;;;;;4.13;2.40;;;28.20;90.90;;;;;;4930356;29;20403;-58
2023/08/11 12:33:15;;;;;;;6.40;2.50;;;28.30;91.70;;;;;;4931121;29;20089;-59
2023/08/11 12:35:41;;;;;;;8.15;2.95;;;28.40;91.40;;;;;;4928839;29;20424;-61
2023/08/11 12:38:12;;;;;;;5.93;2.55;;;28.40;91.30;;;;;;4930513;29;20052;-63